Terminal Aerodrome Forecast
Issued by NWS Grand Rapids, MI

Home | Current Version | Previous Version | Text Only | Print | Product List | Glossary On
Versions: 1 2 3 4 5 6 7 8 9 10 11 12 13 14 15 16 17 18 19 20 21 22 23 24 25
657
FTUS43 KGRR 181253 RRA
TAFGRR
TAF
KGRR 181253Z 1813/1912 36008KT 2SM -DZ BR OVC004
     FM181430 36010KT 3SM -SHRA BR OVC005
     FM181800 35012G23KT 3SM -SHRA BR OVC006
     FM182200 34016G26KT 6SM BR OVC012
     FM190000 33020G30KT P6SM OVC025
     FM190600 33015G25KT P6SM -SHSN OVC030=

USA.gov is the U.S. government's official web portal to all federal, state and local government web resources and services.